sensor_id;sensor_type;location;lat;lon;timestamp;P1;durP1;ratioP1;P2;durP2;ratioP2
70832;SDS011;58452;59.418;17.962;2023-04-06T00:00:48;4.45;;;2.70;;
70832;SDS011;58452;59.418;17.962;2023-04-06T00:03:14;2.92;;;2.17;;
70832;SDS011;58452;59.418;17.962;2023-04-06T00:05:40;5.00;;;2.60;;
70832;SDS011;58452;59.418;17.962;2023-04-06T00:08:06;5.32;;;2.45;;
70832;SDS011;58452;59.418;17.962;2023-04-06T00:10:31;5.72;;;2.25;;
70832;SDS011;58452;59.418;17.962;2023-04-06T00:12:58;4.00;;;2.45;;
70832;SDS011;58452;59.418;17.962;2023-04-06T00:15:24;3.63;;;2.35;;
70832;SDS011;58452;59.418;17.962;2023-04-06T00:17:50;4.35;;;2.60;;
70832;SDS011;58452;59.418;17.962;2023-04-06T00:20:16;3.03;;;2.13;;
70832;SDS011;58452;59.418;17.962;2023-04-06T00:22:42;8.18;;;3.33;;
70832;SDS011;58452;59.418;17.962;2023-04-06T00:25:08;5.57;;;2.30;;
70832;SDS011;58452;59.418;17.962;2023-04-06T00:27:35;4.10;;;2.47;;
70832;SDS011;58452;59.418;17.962;2023-04-06T00:30:02;3.58;;;2.40;;
70832;SDS011;58452;59.418;17.962;2023-04-06T00:32:29;4.25;;;2.70;;
70832;SDS011;58452;59.418;17.962;2023-04-06T00:34:55;3.13;;;2.58;;
70832;SDS011;58452;59.418;17.962;2023-04-06T00:37:21;5.35;;;2.42;;
70832;SDS011;58452;59.418;17.962;2023-04-06T00:39:46;3.75;;;2.67;;
70832;SDS011;58452;59.418;17.962;2023-04-06T00:42:12;5.22;;;2.50;;
70832;SDS011;58452;59.418;17.962;2023-04-06T00:44:39;3.83;;;2.80;;
70832;SDS011;58452;59.418;17.962;2023-04-06T00:47:08;8.75;;;2.80;;
70832;SDS011;58452;59.418;17.962;2023-04-06T00:49:34;5.95;;;2.60;;
70832;SDS011;58452;59.418;17.962;2023-04-06T00:51:59;4.40;;;2.97;;
70832;SDS011;58452;59.418;17.962;2023-04-06T00:54:26;4.82;;;2.65;;
70832;SDS011;58452;59.418;17.962;2023-04-06T00:56:52;3.05;;;2.45;;
70832;SDS011;58452;59.418;17.962;2023-04-06T00:59:17;4.80;;;2.63;;
70832;SDS011;58452;59.418;17.962;2023-04-06T01:01:43;4.30;;;2.47;;
70832;SDS011;58452;59.418;17.962;2023-04-06T01:04:08;4.60;;;2.63;;
70832;SDS011;58452;59.418;17.962;2023-04-06T01:06:34;4.97;;;2.33;;
70832;SDS011;58452;59.418;17.962;2023-04-06T01:09:00;7.05;;;2.95;;
70832;SDS011;58452;59.418;17.962;2023-04-06T01:11:25;5.78;;;3.25;;
70832;SDS011;58452;59.418;17.962;2023-04-06T01:13:51;6.30;;;2.95;;
70832;SDS011;58452;59.418;17.962;2023-04-06T01:16:17;3.33;;;2.78;;
70832;SDS011;58452;59.418;17.962;2023-04-06T01:18:43;11.68;;;2.80;;
70832;SDS011;58452;59.418;17.962;2023-04-06T01:21:09;5.30;;;2.60;;
70832;SDS011;58452;59.418;17.962;2023-04-06T01:23:40;4.30;;;2.35;;
70832;SDS011;58452;59.418;17.962;2023-04-06T01:26:07;4.05;;;2.40;;
70832;SDS011;58452;59.418;17.962;2023-04-06T01:28:33;6.00;;;2.85;;
70832;SDS011;58452;59.418;17.962;2023-04-06T01:30:58;7.00;;;2.95;;
70832;SDS011;58452;59.418;17.962;2023-04-06T01:33:24;3.55;;;2.75;;
70832;SDS011;58452;59.418;17.962;2023-04-06T01:35:50;4.95;;;3.22;;
70832;SDS011;58452;59.418;17.962;2023-04-06T01:38:15;3.65;;;2.72;;
70832;SDS011;58452;59.418;17.962;2023-04-06T01:40:41;3.97;;;3.08;;
70832;SDS011;58452;59.418;17.962;2023-04-06T01:43:06;7.32;;;3.45;;
70832;SDS011;58452;59.418;17.962;2023-04-06T01:45:32;3.78;;;2.45;;
70832;SDS011;58452;59.418;17.962;2023-04-06T01:47:57;3.55;;;2.53;;
70832;SDS011;58452;59.418;17.962;2023-04-06T01:50:23;3.67;;;2.95;;
70832;SDS011;58452;59.418;17.962;2023-04-06T01:52:48;5.80;;;2.78;;
70832;SDS011;58452;59.418;17.962;2023-04-06T01:55:13;3.65;;;2.80;;
70832;SDS011;58452;59.418;17.962;2023-04-06T01:57:39;5.97;;;2.72;;
70832;SDS011;58452;59.418;17.962;2023-04-06T02:00:05;3.20;;;2.50;;
70832;SDS011;58452;59.418;17.962;2023-04-06T02:02:32;4.57;;;2.90;;
70832;SDS011;58452;59.418;17.962;2023-04-06T02:04:58;3.40;;;2.45;;
70832;SDS011;58452;59.418;17.962;2023-04-06T02:07:23;5.65;;;2.78;;
70832;SDS011;58452;59.418;17.962;2023-04-06T02:09:50;4.53;;;3.20;;
70832;SDS011;58452;59.418;17.962;2023-04-06T02:12:19;3.95;;;2.53;;
70832;SDS011;58452;59.418;17.962;2023-04-06T02:14:45;4.38;;;2.85;;
70832;SDS011;58452;59.418;17.962;2023-04-06T02:17:10;5.00;;;3.03;;
70832;SDS011;58452;59.418;17.962;2023-04-06T02:19:36;3.45;;;2.50;;
70832;SDS011;58452;59.418;17.962;2023-04-06T02:22:01;4.90;;;3.25;;
70832;SDS011;58452;59.418;17.962;2023-04-06T02:24:26;4.93;;;3.03;;
70832;SDS011;58452;59.418;17.962;2023-04-06T02:26:52;6.82;;;4.10;;
70832;SDS011;58452;59.418;17.962;2023-04-06T02:29:17;4.38;;;2.67;;
70832;SDS011;58452;59.418;17.962;2023-04-06T02:31:43;6.47;;;3.08;;
70832;SDS011;58452;59.418;17.962;2023-04-06T02:34:08;3.90;;;3.13;;
70832;SDS011;58452;59.418;17.962;2023-04-06T02:36:36;4.78;;;2.72;;
70832;SDS011;58452;59.418;17.962;2023-04-06T02:39:02;6.88;;;3.20;;
70832;SDS011;58452;59.418;17.962;2023-04-06T02:41:28;4.20;;;2.80;;
70832;SDS011;58452;59.418;17.962;2023-04-06T02:43:53;5.38;;;3.42;;
70832;SDS011;58452;59.418;17.962;2023-04-06T02:46:19;6.95;;;4.35;;
70832;SDS011;58452;59.418;17.962;2023-04-06T02:48:45;6.22;;;3.85;;
70832;SDS011;58452;59.418;17.962;2023-04-06T02:51:10;3.78;;;2.83;;
70832;SDS011;58452;59.418;17.962;2023-04-06T02:53:36;5.38;;;3.08;;
70832;SDS011;58452;59.418;17.962;2023-04-06T02:56:01;3.65;;;2.85;;
70832;SDS011;58452;59.418;17.962;2023-04-06T02:58:27;3.78;;;2.92;;
70832;SDS011;58452;59.418;17.962;2023-04-06T03:00:52;3.65;;;2.85;;
70832;SDS011;58452;59.418;17.962;2023-04-06T03:03:17;3.88;;;2.80;;
70832;SDS011;58452;59.418;17.962;2023-04-06T03:05:43;4.70;;;2.90;;
70832;SDS011;58452;59.418;17.962;2023-04-06T03:08:08;4.05;;;2.20;;
70832;SDS011;58452;59.418;17.962;2023-04-06T03:10:34;3.22;;;2.78;;
70832;SDS011;58452;59.418;17.962;2023-04-06T03:13:00;5.03;;;2.88;;
70832;SDS011;58452;59.418;17.962;2023-04-06T03:15:25;5.18;;;3.17;;
70832;SDS011;58452;59.418;17.962;2023-04-06T03:17:51;4.18;;;2.75;;
70832;SDS011;58452;59.418;17.962;2023-04-06T03:20:16;5.88;;;3.42;;
70832;SDS011;58452;59.418;17.962;2023-04-06T03:22:42;7.93;;;3.03;;
70832;SDS011;58452;59.418;17.962;2023-04-06T03:25:07;4.88;;;2.30;;
70832;SDS011;58452;59.418;17.962;2023-04-06T03:27:33;3.08;;;2.72;;
70832;SDS011;58452;59.418;17.962;2023-04-06T03:29:58;5.28;;;3.00;;
70832;SDS011;58452;59.418;17.962;2023-04-06T03:32:24;4.43;;;3.20;;
70832;SDS011;58452;59.418;17.962;2023-04-06T03:34:49;4.75;;;2.78;;
70832;SDS011;58452;59.418;17.962;2023-04-06T03:37:15;4.53;;;2.90;;
70832;SDS011;58452;59.418;17.962;2023-04-06T03:39:40;5.80;;;2.90;;
70832;SDS011;58452;59.418;17.962;2023-04-06T03:42:06;3.72;;;2.70;;
70832;SDS011;58452;59.418;17.962;2023-04-06T03:44:31;4.57;;;2.50;;
70832;SDS011;58452;59.418;17.962;2023-04-06T03:46:57;5.80;;;3.63;;
70832;SDS011;58452;59.418;17.962;2023-04-06T03:49:22;4.20;;;2.95;;
70832;SDS011;58452;59.418;17.962;2023-04-06T03:51:47;3.50;;;2.55;;
70832;SDS011;58452;59.418;17.962;2023-04-06T03:54:13;3.05;;;2.75;;
70832;SDS011;58452;59.418;17.962;2023-04-06T03:56:39;5.15;;;3.20;;
70832;SDS011;58452;59.418;17.962;2023-04-06T03:59:04;6.25;;;3.40;;
70832;SDS011;58452;59.418;17.962;2023-04-06T04:01:30;6.03;;;2.90;;
70832;SDS011;58452;59.418;17.962;2023-04-06T04:03:55;6.10;;;2.95;;
70832;SDS011;58452;59.418;17.962;2023-04-06T04:06:21;5.03;;;2.92;;
70832;SDS011;58452;59.418;17.962;2023-04-06T04:08:46;4.80;;;3.47;;
70832;SDS011;58452;59.418;17.962;2023-04-06T04:11:12;6.18;;;3.25;;
70832;SDS011;58452;59.418;17.962;2023-04-06T04:13:37;3.58;;;2.85;;
70832;SDS011;58452;59.418;17.962;2023-04-06T04:16:03;5.18;;;3.20;;
70832;SDS011;58452;59.418;17.962;2023-04-06T04:18:28;5.13;;;3.17;;
70832;SDS011;58452;59.418;17.962;2023-04-06T04:20:54;5.07;;;2.97;;
70832;SDS011;58452;59.418;17.962;2023-04-06T04:23:19;4.45;;;2.95;;
70832;SDS011;58452;59.418;17.962;2023-04-06T04:25:45;4.22;;;2.67;;
70832;SDS011;58452;59.418;17.962;2023-04-06T04:28:10;6.55;;;2.80;;
70832;SDS011;58452;59.418;17.962;2023-04-06T04:30:36;4.75;;;2.95;;
70832;SDS011;58452;59.418;17.962;2023-04-06T04:33:01;7.53;;;3.60;;
70832;SDS011;58452;59.418;17.962;2023-04-06T04:35:27;3.53;;;2.83;;
70832;SDS011;58452;59.418;17.962;2023-04-06T04:37:52;3.35;;;2.78;;
70832;SDS011;58452;59.418;17.962;2023-04-06T04:40:18;5.10;;;3.08;;
70832;SDS011;58452;59.418;17.962;2023-04-06T04:42:43;4.85;;;3.53;;
70832;SDS011;58452;59.418;17.962;2023-04-06T04:45:10;3.15;;;2.50;;
70832;SDS011;58452;59.418;17.962;2023-04-06T04:47:35;6.20;;;2.97;;
70832;SDS011;58452;59.418;17.962;2023-04-06T04:50:01;2.97;;;2.38;;
70832;SDS011;58452;59.418;17.962;2023-04-06T04:52:26;7.10;;;2.80;;
70832;SDS011;58452;59.418;17.962;2023-04-06T04:54:52;3.35;;;2.63;;
70832;SDS011;58452;59.418;17.962;2023-04-06T04:57:17;5.72;;;3.30;;
70832;SDS011;58452;59.418;17.962;2023-04-06T04:59:43;5.65;;;2.95;;
70832;SDS011;58452;59.418;17.962;2023-04-06T05:02:08;3.65;;;3.03;;
70832;SDS011;58452;59.418;17.962;2023-04-06T05:04:33;3.53;;;2.50;;
70832;SDS011;58452;59.418;17.962;2023-04-06T05:07:04;3.78;;;2.50;;
70832;SDS011;58452;59.418;17.962;2023-04-06T05:09:34;4.10;;;3.50;;
70832;SDS011;58452;59.418;17.962;2023-04-06T05:12:00;6.72;;;2.95;;
70832;SDS011;58452;59.418;17.962;2023-04-06T05:14:28;6.20;;;3.15;;
70832;SDS011;58452;59.418;17.962;2023-04-06T05:16:54;5.93;;;2.42;;
70832;SDS011;58452;59.418;17.962;2023-04-06T05:19:20;4.07;;;2.80;;
70832;SDS011;58452;59.418;17.962;2023-04-06T05:21:46;4.70;;;2.53;;
70832;SDS011;58452;59.418;17.962;2023-04-06T05:24:11;5.57;;;3.00;;
70832;SDS011;58452;59.418;17.962;2023-04-06T05:26:37;5.15;;;3.13;;
70832;SDS011;58452;59.418;17.962;2023-04-06T05:29:02;5.68;;;3.40;;
70832;SDS011;58452;59.418;17.962;2023-04-06T05:31:28;3.50;;;2.95;;
70832;SDS011;58452;59.418;17.962;2023-04-06T05:33:54;5.80;;;3.45;;
70832;SDS011;58452;59.418;17.962;2023-04-06T05:36:20;4.05;;;2.90;;
70832;SDS011;58452;59.418;17.962;2023-04-06T05:38:46;4.20;;;2.42;;
70832;SDS011;58452;59.418;17.962;2023-04-06T05:41:12;4.65;;;2.38;;
70832;SDS011;58452;59.418;17.962;2023-04-06T05:43:38;5.93;;;3.30;;
70832;SDS011;58452;59.418;17.962;2023-04-06T05:46:15;4.82;;;3.13;;
70832;SDS011;58452;59.418;17.962;2023-04-06T05:48:41;5.20;;;3.03;;
70832;SDS011;58452;59.418;17.962;2023-04-06T05:51:06;3.03;;;2.72;;
70832;SDS011;58452;59.418;17.962;2023-04-06T05:53:32;4.65;;;2.75;;
70832;SDS011;58452;59.418;17.962;2023-04-06T05:56:01;4.32;;;3.10;;
70832;SDS011;58452;59.418;17.962;2023-04-06T05:58:27;5.60;;;2.78;;
70832;SDS011;58452;59.418;17.962;2023-04-06T06:00:56;2.72;;;2.30;;
70832;SDS011;58452;59.418;17.962;2023-04-06T06:03:23;6.97;;;3.22;;
70832;SDS011;58452;59.418;17.962;2023-04-06T06:05:48;5.57;;;2.78;;
70832;SDS011;58452;59.418;17.962;2023-04-06T06:08:13;3.90;;;2.63;;
70832;SDS011;58452;59.418;17.962;2023-04-06T06:10:39;4.40;;;3.20;;
70832;SDS011;58452;59.418;17.962;2023-04-06T06:13:05;3.05;;;2.53;;
70832;SDS011;58452;59.418;17.962;2023-04-06T06:15:30;4.32;;;3.00;;
70832;SDS011;58452;59.418;17.962;2023-04-06T06:17:56;4.72;;;3.58;;
70832;SDS011;58452;59.418;17.962;2023-04-06T06:20:21;5.00;;;3.28;;
70832;SDS011;58452;59.418;17.962;2023-04-06T06:22:47;6.15;;;3.55;;
70832;SDS011;58452;59.418;17.962;2023-04-06T06:25:12;4.60;;;3.42;;
70832;SDS011;58452;59.418;17.962;2023-04-06T06:27:38;5.07;;;3.35;;
70832;SDS011;58452;59.418;17.962;2023-04-06T06:30:04;6.10;;;3.05;;
70832;SDS011;58452;59.418;17.962;2023-04-06T06:32:30;5.68;;;3.22;;
70832;SDS011;58452;59.418;17.962;2023-04-06T06:34:55;5.57;;;3.75;;
70832;SDS011;58452;59.418;17.962;2023-04-06T06:37:21;6.13;;;3.20;;
70832;SDS011;58452;59.418;17.962;2023-04-06T06:39:46;4.68;;;2.95;;
70832;SDS011;58452;59.418;17.962;2023-04-06T06:42:12;3.97;;;3.10;;
70832;SDS011;58452;59.418;17.962;2023-04-06T06:44:37;4.90;;;2.67;;
70832;SDS011;58452;59.418;17.962;2023-04-06T06:47:03;3.75;;;2.70;;
70832;SDS011;58452;59.418;17.962;2023-04-06T06:49:28;4.75;;;2.92;;
70832;SDS011;58452;59.418;17.962;2023-04-06T06:51:54;3.50;;;2.65;;
70832;SDS011;58452;59.418;17.962;2023-04-06T06:54:19;4.22;;;2.90;;
70832;SDS011;58452;59.418;17.962;2023-04-06T06:56:46;4.43;;;2.50;;
70832;SDS011;58452;59.418;17.962;2023-04-06T06:59:11;4.97;;;2.78;;
70832;SDS011;58452;59.418;17.962;2023-04-06T07:01:37;3.35;;;2.58;;
70832;SDS011;58452;59.418;17.962;2023-04-06T07:04:02;3.72;;;2.00;;
70832;SDS011;58452;59.418;17.962;2023-04-06T07:06:28;3.63;;;2.47;;
70832;SDS011;58452;59.418;17.962;2023-04-06T07:08:53;4.35;;;2.38;;
70832;SDS011;58452;59.418;17.962;2023-04-06T07:11:19;3.78;;;2.33;;
70832;SDS011;58452;59.418;17.962;2023-04-06T07:13:45;3.80;;;2.30;;
70832;SDS011;58452;59.418;17.962;2023-04-06T07:16:11;3.05;;;2.20;;
70832;SDS011;58452;59.418;17.962;2023-04-06T07:18:36;6.00;;;2.40;;
70832;SDS011;58452;59.418;17.962;2023-04-06T07:21:02;2.42;;;2.00;;
70832;SDS011;58452;59.418;17.962;2023-04-06T07:23:27;4.68;;;2.53;;
70832;SDS011;58452;59.418;17.962;2023-04-06T07:25:53;3.17;;;2.88;;
70832;SDS011;58452;59.418;17.962;2023-04-06T07:28:19;3.83;;;2.30;;
70832;SDS011;58452;59.418;17.962;2023-04-06T07:30:45;2.67;;;2.00;;
70832;SDS011;58452;59.418;17.962;2023-04-06T07:33:10;3.35;;;2.70;;
70832;SDS011;58452;59.418;17.962;2023-04-06T07:35:36;3.65;;;2.80;;
70832;SDS011;58452;59.418;17.962;2023-04-06T07:38:02;3.65;;;2.65;;
70832;SDS011;58452;59.418;17.962;2023-04-06T07:40:28;3.60;;;1.95;;
70832;SDS011;58452;59.418;17.962;2023-04-06T07:42:53;5.57;;;2.63;;
70832;SDS011;58452;59.418;17.962;2023-04-06T07:45:19;3.17;;;2.33;;
70832;SDS011;58452;59.418;17.962;2023-04-06T07:47:45;3.53;;;2.22;;
70832;SDS011;58452;59.418;17.962;2023-04-06T07:50:11;2.85;;;2.30;;
70832;SDS011;58452;59.418;17.962;2023-04-06T07:52:37;3.45;;;2.17;;
70832;SDS011;58452;59.418;17.962;2023-04-06T07:55:03;3.05;;;2.35;;
70832;SDS011;58452;59.418;17.962;2023-04-06T07:57:29;3.50;;;2.33;;
70832;SDS011;58452;59.418;17.962;2023-04-06T07:59:55;3.83;;;2.20;;
70832;SDS011;58452;59.418;17.962;2023-04-06T08:02:20;1.77;;;1.60;;
70832;SDS011;58452;59.418;17.962;2023-04-06T08:04:46;6.15;;;2.38;;
70832;SDS011;58452;59.418;17.962;2023-04-06T08:07:12;3.95;;;1.75;;
70832;SDS011;58452;59.418;17.962;2023-04-06T08:09:37;2.80;;;1.55;;
70832;SDS011;58452;59.418;17.962;2023-04-06T08:12:03;4.45;;;1.90;;
70832;SDS011;58452;59.418;17.962;2023-04-06T08:14:28;2.60;;;1.67;;
70832;SDS011;58452;59.418;17.962;2023-04-06T08:16:54;3.15;;;1.67;;
70832;SDS011;58452;59.418;17.962;2023-04-06T08:19:20;1.88;;;1.67;;
70832;SDS011;58452;59.418;17.962;2023-04-06T08:21:45;2.95;;;1.80;;
70832;SDS011;58452;59.418;17.962;2023-04-06T08:24:12;2.10;;;1.40;;
70832;SDS011;58452;59.418;17.962;2023-04-06T08:26:38;1.92;;;1.42;;
70832;SDS011;58452;59.418;17.962;2023-04-06T08:29:04;1.70;;;1.42;;
70832;SDS011;58452;59.418;17.962;2023-04-06T08:31:32;1.35;;;1.20;;
70832;SDS011;58452;59.418;17.962;2023-04-06T08:33:58;2.92;;;1.50;;
70832;SDS011;58452;59.418;17.962;2023-04-06T08:36:24;2.63;;;1.63;;
70832;SDS011;58452;59.418;17.962;2023-04-06T08:38:50;3.65;;;1.40;;
70832;SDS011;58452;59.418;17.962;2023-04-06T08:41:15;1.98;;;1.40;;
70832;SDS011;58452;59.418;17.962;2023-04-06T08:43:49;1.75;;;1.00;;
70832;SDS011;58452;59.418;17.962;2023-04-06T08:46:20;4.25;;;1.40;;
70832;SDS011;58452;59.418;17.962;2023-04-06T08:48:46;1.90;;;1.38;;
70832;SDS011;58452;59.418;17.962;2023-04-06T08:51:15;4.53;;;1.65;;
70832;SDS011;58452;59.418;17.962;2023-04-06T08:53:40;2.00;;;1.35;;
70832;SDS011;58452;59.418;17.962;2023-04-06T08:56:06;2.70;;;1.60;;
70832;SDS011;58452;59.418;17.962;2023-04-06T08:58:35;1.65;;;1.17;;
70832;SDS011;58452;59.418;17.962;2023-04-06T09:01:04;2.05;;;1.40;;
70832;SDS011;58452;59.418;17.962;2023-04-06T09:03:33;1.80;;;1.20;;
70832;SDS011;58452;59.418;17.962;2023-04-06T09:06:01;2.55;;;1.35;;
70832;SDS011;58452;59.418;17.962;2023-04-06T09:08:29;2.15;;;1.67;;
70832;SDS011;58452;59.418;17.962;2023-04-06T09:10:54;2.47;;;1.60;;
70832;SDS011;58452;59.418;17.962;2023-04-06T09:13:20;4.82;;;1.13;;
70832;SDS011;58452;59.418;17.962;2023-04-06T09:15:46;3.42;;;1.25;;
70832;SDS011;58452;59.418;17.962;2023-04-06T09:18:11;2.95;;;1.70;;
70832;SDS011;58452;59.418;17.962;2023-04-06T09:20:36;3.78;;;1.40;;
70832;SDS011;58452;59.418;17.962;2023-04-06T09:23:02;2.63;;;1.70;;
70832;SDS011;58452;59.418;17.962;2023-04-06T09:25:28;2.42;;;1.45;;
70832;SDS011;58452;59.418;17.962;2023-04-06T09:28:00;1.73;;;1.23;;
70832;SDS011;58452;59.418;17.962;2023-04-06T09:30:27;1.27;;;1.13;;
70832;SDS011;58452;59.418;17.962;2023-04-06T09:32:54;1.48;;;1.00;;
70832;SDS011;58452;59.418;17.962;2023-04-06T09:35:21;3.67;;;1.58;;
70832;SDS011;58452;59.418;17.962;2023-04-06T09:37:51;1.33;;;1.15;;
70832;SDS011;58452;59.418;17.962;2023-04-06T09:40:17;2.20;;;1.60;;
70832;SDS011;58452;59.418;17.962;2023-04-06T09:42:47;2.60;;;1.35;;
70832;SDS011;58452;59.418;17.962;2023-04-06T09:45:15;1.88;;;1.25;;
70832;SDS011;58452;59.418;17.962;2023-04-06T09:47:44;2.83;;;1.33;;
70832;SDS011;58452;59.418;17.962;2023-04-06T09:50:11;2.83;;;1.20;;
70832;SDS011;58452;59.418;17.962;2023-04-06T09:52:42;1.73;;;1.50;;
70832;SDS011;58452;59.418;17.962;2023-04-06T09:55:16;3.58;;;1.30;;
70832;SDS011;58452;59.418;17.962;2023-04-06T09:57:55;2.13;;;1.38;;
70832;SDS011;58452;59.418;17.962;2023-04-06T10:00:27;1.65;;;1.40;;
70832;SDS011;58452;59.418;17.962;2023-04-06T10:05:53;2.78;;;1.23;;
70832;SDS011;58452;59.418;17.962;2023-04-06T10:08:24;2.38;;;1.40;;
70832;SDS011;58452;59.418;17.962;2023-04-06T10:10:53;5.18;;;1.52;;
70832;SDS011;58452;59.418;17.962;2023-04-06T10:13:20;1.92;;;1.55;;
70832;SDS011;58452;59.418;17.962;2023-04-06T10:15:46;3.45;;;1.20;;
70832;SDS011;58452;59.418;17.962;2023-04-06T10:18:12;2.55;;;1.33;;
70832;SDS011;58452;59.418;17.962;2023-04-06T10:20:43;1.73;;;1.13;;
70832;SDS011;58452;59.418;17.962;2023-04-06T10:23:33;1.52;;;1.40;;
70832;SDS011;58452;59.418;17.962;2023-04-06T10:26:00;2.67;;;1.27;;
70832;SDS011;58452;59.418;17.962;2023-04-06T10:28:30;1.38;;;1.05;;
70832;SDS011;58452;59.418;17.962;2023-04-06T10:31:01;1.63;;;1.40;;
70832;SDS011;58452;59.418;17.962;2023-04-06T10:33:30;1.50;;;1.27;;
70832;SDS011;58452;59.418;17.962;2023-04-06T10:35:56;1.75;;;1.17;;
70832;SDS011;58452;59.418;17.962;2023-04-06T10:38:22;2.90;;;1.30;;
70832;SDS011;58452;59.418;17.962;2023-04-06T10:41:03;1.95;;;1.40;;
70832;SDS011;58452;59.418;17.962;2023-04-06T10:43:32;3.40;;;1.40;;
70832;SDS011;58452;59.418;17.962;2023-04-06T10:46:00;1.83;;;1.30;;
70832;SDS011;58452;59.418;17.962;2023-04-06T10:48:36;1.92;;;1.15;;
70832;SDS011;58452;59.418;17.962;2023-04-06T10:51:07;1.73;;;1.23;;
70832;SDS011;58452;59.418;17.962;2023-04-06T10:53:45;3.75;;;1.40;;
70832;SDS011;58452;59.418;17.962;2023-04-06T10:56:17;1.20;;;1.00;;
70832;SDS011;58452;59.418;17.962;2023-04-06T10:58:43;2.20;;;1.60;;
70832;SDS011;58452;59.418;17.962;2023-04-06T11:01:21;4.32;;;1.05;;
70832;SDS011;58452;59.418;17.962;2023-04-06T11:03:48;2.03;;;1.02;;
70832;SDS011;58452;59.418;17.962;2023-04-06T11:06:19;5.97;;;2.47;;
70832;SDS011;58452;59.418;17.962;2023-04-06T11:08:48;1.17;;;1.00;;
70832;SDS011;58452;59.418;17.962;2023-04-06T11:11:16;1.45;;;1.08;;
70832;SDS011;58452;59.418;17.962;2023-04-06T11:13:53;2.22;;;1.00;;
70832;SDS011;58452;59.418;17.962;2023-04-06T11:16:24;1.38;;;1.25;;
70832;SDS011;58452;59.418;17.962;2023-04-06T11:18:52;4.28;;;1.58;;
70832;SDS011;58452;59.418;17.962;2023-04-06T11:21:31;1.83;;;1.15;;
70832;SDS011;58452;59.418;17.962;2023-04-06T11:29:19;1.90;;;1.10;;
70832;SDS011;58452;59.418;17.962;2023-04-06T11:34:29;5.07;;;1.70;;
70832;SDS011;58452;59.418;17.962;2023-04-06T11:37:00;1.90;;;1.00;;
70832;SDS011;58452;59.418;17.962;2023-04-06T11:39:28;1.50;;;1.27;;
70832;SDS011;58452;59.418;17.962;2023-04-06T11:41:57;4.60;;;1.20;;
70832;SDS011;58452;59.418;17.962;2023-04-06T11:47:05;3.58;;;1.33;;
70832;SDS011;58452;59.418;17.962;2023-04-06T11:49:33;3.05;;;1.02;;
70832;SDS011;58452;59.418;17.962;2023-04-06T11:52:01;2.10;;;1.42;;
70832;SDS011;58452;59.418;17.962;2023-04-06T11:54:34;2.58;;;1.27;;
70832;SDS011;58452;59.418;17.962;2023-04-06T11:57:03;3.03;;;1.77;;
70832;SDS011;58452;59.418;17.962;2023-04-06T11:59:30;3.20;;;1.08;;
70832;SDS011;58452;59.418;17.962;2023-04-06T12:01:59;1.77;;;1.00;;
70832;SDS011;58452;59.418;17.962;2023-04-06T12:04:24;3.35;;;1.00;;
70832;SDS011;58452;59.418;17.962;2023-04-06T12:06:50;2.58;;;2.10;;
70832;SDS011;58452;59.418;17.962;2023-04-06T12:09:16;1.77;;;0.90;;
70832;SDS011;58452;59.418;17.962;2023-04-06T12:11:45;1.42;;;1.10;;
70832;SDS011;58452;59.418;17.962;2023-04-06T12:14:11;1.52;;;1.17;;
70832;SDS011;58452;59.418;17.962;2023-04-06T12:16:37;3.53;;;1.38;;
70832;SDS011;58452;59.418;17.962;2023-04-06T12:19:03;1.83;;;1.33;;
70832;SDS011;58452;59.418;17.962;2023-04-06T12:21:29;1.23;;;1.00;;
70832;SDS011;58452;59.418;17.962;2023-04-06T12:23:56;2.67;;;1.60;;
70832;SDS011;58452;59.418;17.962;2023-04-06T12:26:24;2.25;;;1.23;;
70832;SDS011;58452;59.418;17.962;2023-04-06T12:28:50;11.05;;;2.05;;
70832;SDS011;58452;59.418;17.962;2023-04-06T12:31:16;4.15;;;1.33;;
70832;SDS011;58452;59.418;17.962;2023-04-06T12:33:42;5.00;;;1.30;;
70832;SDS011;58452;59.418;17.962;2023-04-06T12:36:13;2.28;;;1.42;;
70832;SDS011;58452;59.418;17.962;2023-04-06T12:38:40;2.05;;;1.05;;
70832;SDS011;58452;59.418;17.962;2023-04-06T12:41:06;3.65;;;1.40;;
70832;SDS011;58452;59.418;17.962;2023-04-06T12:43:33;2.38;;;1.10;;
70832;SDS011;58452;59.418;17.962;2023-04-06T12:45:58;6.28;;;1.40;;
70832;SDS011;58452;59.418;17.962;2023-04-06T12:48:27;1.05;;;0.90;;
70832;SDS011;58452;59.418;17.962;2023-04-06T12:50:59;1.67;;;1.15;;
70832;SDS011;58452;59.418;17.962;2023-04-06T12:53:29;1.90;;;1.30;;
70832;SDS011;58452;59.418;17.962;2023-04-06T12:55:55;3.13;;;1.40;;
70832;SDS011;58452;59.418;17.962;2023-04-06T12:58:22;4.00;;;1.00;;
70832;SDS011;58452;59.418;17.962;2023-04-06T13:00:48;1.77;;;1.25;;
70832;SDS011;58452;59.418;17.962;2023-04-06T13:03:20;1.27;;;0.90;;
70832;SDS011;58452;59.418;17.962;2023-04-06T13:05:47;4.35;;;1.30;;
70832;SDS011;58452;59.418;17.962;2023-04-06T13:08:14;1.73;;;1.55;;
70832;SDS011;58452;59.418;17.962;2023-04-06T13:10:43;10.10;;;1.17;;
70832;SDS011;58452;59.418;17.962;2023-04-06T13:13:12;3.88;;;1.20;;
70832;SDS011;58452;59.418;17.962;2023-04-06T13:15:37;4.00;;;1.42;;
70832;SDS011;58452;59.418;17.962;2023-04-06T13:18:03;2.67;;;1.13;;
70832;SDS011;58452;59.418;17.962;2023-04-06T13:20:28;2.17;;;1.70;;
70832;SDS011;58452;59.418;17.962;2023-04-06T13:22:54;4.50;;;1.40;;
70832;SDS011;58452;59.418;17.962;2023-04-06T13:25:19;4.65;;;1.20;;
70832;SDS011;58452;59.418;17.962;2023-04-06T13:27:45;5.20;;;0.90;;
70832;SDS011;58452;59.418;17.962;2023-04-06T13:30:13;3.22;;;1.35;;
70832;SDS011;58452;59.418;17.962;2023-04-06T13:32:38;2.88;;;1.13;;
70832;SDS011;58452;59.418;17.962;2023-04-06T13:35:04;6.40;;;1.23;;
70832;SDS011;58452;59.418;17.962;2023-04-06T13:37:31;1.73;;;1.13;;
70832;SDS011;58452;59.418;17.962;2023-04-06T13:39:57;3.05;;;1.05;;
70832;SDS011;58452;59.418;17.962;2023-04-06T13:42:22;3.28;;;1.20;;
70832;SDS011;58452;59.418;17.962;2023-04-06T13:44:48;1.65;;;1.02;;
70832;SDS011;58452;59.418;17.962;2023-04-06T13:47:15;2.67;;;1.23;;
70832;SDS011;58452;59.418;17.962;2023-04-06T13:49:41;1.65;;;1.10;;
70832;SDS011;58452;59.418;17.962;2023-04-06T13:52:06;5.03;;;1.20;;
70832;SDS011;58452;59.418;17.962;2023-04-06T13:54:32;1.55;;;1.13;;
70832;SDS011;58452;59.418;17.962;2023-04-06T13:56:58;2.35;;;0.95;;
70832;SDS011;58452;59.418;17.962;2023-04-06T13:59:23;6.88;;;1.00;;
70832;SDS011;58452;59.418;17.962;2023-04-06T14:01:48;2.90;;;1.02;;
70832;SDS011;58452;59.418;17.962;2023-04-06T14:04:14;2.08;;;0.90;;
70832;SDS011;58452;59.418;17.962;2023-04-06T14:06:39;3.70;;;0.93;;
70832;SDS011;58452;59.418;17.962;2023-04-06T14:09:05;2.55;;;1.17;;
70832;SDS011;58452;59.418;17.962;2023-04-06T14:11:31;2.15;;;1.33;;
70832;SDS011;58452;59.418;17.962;2023-04-06T14:13:57;1.60;;;1.23;;
70832;SDS011;58452;59.418;17.962;2023-04-06T14:16:23;4.22;;;1.10;;
70832;SDS011;58452;59.418;17.962;2023-04-06T14:18:49;1.80;;;1.00;;
70832;SDS011;58452;59.418;17.962;2023-04-06T14:21:14;1.67;;;1.23;;
70832;SDS011;58452;59.418;17.962;2023-04-06T14:23:40;1.30;;;1.17;;
70832;SDS011;58452;59.418;17.962;2023-04-06T14:26:06;2.17;;;1.92;;
70832;SDS011;58452;59.418;17.962;2023-04-06T14:28:33;1.60;;;1.20;;
70832;SDS011;58452;59.418;17.962;2023-04-06T14:31:00;1.10;;;0.90;;
70832;SDS011;58452;59.418;17.962;2023-04-06T14:33:29;2.15;;;1.05;;
70832;SDS011;58452;59.418;17.962;2023-04-06T14:35:55;4.43;;;1.17;;
70832;SDS011;58452;59.418;17.962;2023-04-06T14:38:21;5.20;;;1.33;;
70832;SDS011;58452;59.418;17.962;2023-04-06T14:40:47;1.45;;;1.13;;
70832;SDS011;58452;59.418;17.962;2023-04-06T14:43:12;2.65;;;1.50;;